createdAt,value
2022-08-08T05:32:04.050Z,1.08
2022-08-08T05:35:09.622Z,1.40
2022-08-08T05:38:30.242Z,0.88
2022-08-08T05:41:54.650Z,0.88
2022-08-08T05:45:24.725Z,1.30
2022-08-08T05:48:28.257Z,1.33
2022-08-08T05:51:48.497Z,0.90
2022-08-08T05:54:53.583Z,1.13
2022-08-08T05:58:06.159Z,1.25
2022-08-08T06:01:52.821Z,1.38
2022-08-08T06:04:47.769Z,1.65
2022-08-08T06:08:02.506Z,1.23
2022-08-08T06:11:13.385Z,2.03
2022-08-08T06:49:56.308Z,2.15
2022-08-08T06:53:09.734Z,2.90
2022-08-08T06:56:16.491Z,2.05
2022-08-08T06:59:18.853Z,2.42
2022-08-08T07:02:29.455Z,1.95
2022-08-08T07:05:40.251Z,3.42
2022-08-08T07:08:47.417Z,2.97
2022-08-08T07:11:54.993Z,2.47
2022-08-08T07:15:06.480Z,2.27
2022-08-08T07:18:42.766Z,3.10
2022-08-08T07:22:00.507Z,2.35
2022-08-08T07:25:09.024Z,1.75
2022-08-08T07:28:19.745Z,2.00
2022-08-08T07:31:22.473Z,2.03
2022-08-08T07:37:56.283Z,2.92
2022-08-08T07:40:59.098Z,2.10
2022-08-08T07:44:17.667Z,2.17
2022-08-08T07:47:29.151Z,2.08
2022-08-08T07:50:43.001Z,3.05
2022-08-08T07:54:06.302Z,2.10
2022-08-08T07:57:48.299Z,1.50
2022-08-08T08:00:52.935Z,2.10
2022-08-08T08:04:04.309Z,2.17
2022-08-08T08:07:08.811Z,2.60
2022-08-08T08:10:12.954Z,1.95
2022-08-08T08:13:43.068Z,2.10
2022-08-08T08:17:00.681Z,2.22
2022-08-08T08:23:06.269Z,2.17
2022-08-08T08:26:08.147Z,2.10
2022-08-08T08:29:09.962Z,2.03
2022-08-08T08:32:32.042Z,2.53
2022-08-08T08:36:19.953Z,1.90
2022-08-08T08:39:00.814Z,1.90
2022-08-08T08:42:03.216Z,1.90
2022-08-08T08:45:16.501Z,2.08
2022-08-08T08:48:24.563Z,2.70
2022-08-08T08:51:28.700Z,1.92
2022-08-08T08:54:34.869Z,2.22
2022-08-08T08:57:36.724Z,2.10
2022-08-08T09:01:03.894Z,1.73
2022-08-08T09:04:05.891Z,2.20
2022-08-08T09:07:14.956Z,2.13
2022-08-08T09:10:17.794Z,2.30
2022-08-08T09:13:25.301Z,1.80
2022-08-08T09:16:32.875Z,1.50
2022-08-08T09:21:56.922Z,1.70
2022-08-08T09:22:58.835Z,1.90
2022-08-08T09:26:08.159Z,1.75
2022-08-08T09:29:24.614Z,1.77
2022-08-08T09:33:11.920Z,1.23
2022-08-08T09:36:04.560Z,2.17
2022-08-08T09:39:15.243Z,1.80
2022-08-08T09:42:23.550Z,1.45
2022-08-08T09:46:04.079Z,1.50
2022-08-08T09:49:41.127Z,1.35
2022-08-08T09:52:55.575Z,1.58
2022-08-08T09:56:06.132Z,1.67
2022-08-08T09:59:42.682Z,1.77
2022-08-08T10:02:37.042Z,1.77
2022-08-08T10:05:42.507Z,1.45
2022-08-08T10:08:50.222Z,1.45
2022-08-08T10:12:25.993Z,1.17
2022-08-08T10:15:17.317Z,1.20
2022-08-08T10:18:30.912Z,1.70
2022-08-08T10:21:50.126Z,1.38
2022-08-08T10:25:04.610Z,1.90
2022-08-08T10:28:08.461Z,1.60
2022-08-08T10:31:46.615Z,1.45
2022-08-08T10:35:00.329Z,1.10
2022-08-08T10:38:08.227Z,1.55
2022-08-08T10:41:16.770Z,1.70
2022-08-08T10:44:34.522Z,1.38
2022-08-08T10:47:43.772Z,1.70
2022-08-08T10:50:50.138Z,1.38
2022-08-08T10:53:56.812Z,1.50
2022-08-08T10:57:03.992Z,1.30
2022-08-08T11:00:10.319Z,1.40
2022-08-08T11:03:16.083Z,1.58
2022-08-08T11:06:18.066Z,1.40
2022-08-08T11:09:21.820Z,1.42
2022-08-08T11:12:24.709Z,1.45
2022-08-08T11:15:31.264Z,1.60
2022-08-08T11:18:36.750Z,1.52
2022-08-08T11:21:45.217Z,1.40
2022-08-08T11:25:01.398Z,1.60
2022-08-08T11:28:04.227Z,1.75
2022-08-08T11:31:09.583Z,1.40
2022-08-08T11:34:24.153Z,1.67
2022-08-08T11:38:34.654Z,1.20
2022-08-08T11:40:56.452Z,1.90
2022-08-08T11:43:58.595Z,1.60
2022-08-08T11:47:02.797Z,1.60
2022-08-08T11:50:23.426Z,1.60
2022-08-08T11:53:25.742Z,1.50
2022-08-08T11:56:34.401Z,1.50
2022-08-08T11:59:57.962Z,1.48
2022-08-08T12:03:00.987Z,1.70
2022-08-08T12:06:13.799Z,1.90
2022-08-08T12:09:16.997Z,1.30
2022-08-08T12:12:28.918Z,1.33
2022-08-08T12:15:42.738Z,1.40
2022-08-08T12:18:53.893Z,1.65
2022-08-08T12:22:09.326Z,1.73
2022-08-08T12:25:33.464Z,1.25
2022-08-08T12:28:40.382Z,1.55
2022-08-08T12:31:53.785Z,1.73
2022-08-08T12:35:01.204Z,1.55
2022-08-08T12:38:09.070Z,1.58
2022-08-08T12:41:16.713Z,1.40
2022-08-08T12:44:30.303Z,1.73
2022-08-08T12:47:59.103Z,1.40
2022-08-08T12:50:58.468Z,1.98
2022-08-08T12:54:01.931Z,1.55
2022-08-08T12:57:23.421Z,1.67
2022-08-08T13:00:34.010Z,1.52
2022-08-08T13:03:49.072Z,1.27
2022-08-08T13:07:01.299Z,1.42
2022-08-08T13:10:15.112Z,1.38
2022-08-08T13:13:38.051Z,1.30
2022-08-08T13:16:40.613Z,1.33
2022-08-08T13:19:50.215Z,1.50
2022-08-08T13:23:30.992Z,1.30
2022-08-08T13:26:32.581Z,1.65
2022-08-08T13:29:37.940Z,1.88
2022-08-08T13:32:42.640Z,1.73
2022-08-08T13:35:45.874Z,1.60
2022-08-08T13:38:52.501Z,1.50
2022-08-08T13:42:01.205Z,1.65
2022-08-08T13:45:04.575Z,1.55
2022-08-08T13:48:14.611Z,1.63
2022-08-08T13:51:34.314Z,1.48
2022-08-08T13:54:49.730Z,1.73
2022-08-08T13:58:08.001Z,2.25
2022-08-08T14:01:18.548Z,1.30
2022-08-08T14:04:22.983Z,1.10
2022-08-08T14:10:37.406Z,1.20
2022-08-08T14:14:00.120Z,1.13
2022-08-08T14:17:05.223Z,1.50
2022-08-08T14:20:14.883Z,1.40
2022-08-08T14:24:07.768Z,1.38
2022-08-08T14:27:37.727Z,1.40
2022-08-08T14:30:47.592Z,1.13
2022-08-08T14:33:55.093Z,1.63
2022-08-08T14:36:56.896Z,1.10
2022-08-08T14:40:05.498Z,1.17
2022-08-08T14:43:22.225Z,1.70
2022-08-08T14:46:32.994Z,1.33
2022-08-08T14:49:51.480Z,1.33
2022-08-08T14:53:04.275Z,1.45
2022-08-08T14:56:06.359Z,1.33
2022-08-08T14:59:22.609Z,1.40
2022-08-08T15:02:34.007Z,1.23
2022-08-08T15:05:43.087Z,1.20
2022-08-08T15:08:56.604Z,1.42
2022-08-08T15:11:59.213Z,0.90
2022-08-08T15:15:00.911Z,1.42
2022-08-08T15:18:10.659Z,1.30
2022-08-08T15:21:13.473Z,1.60
2022-08-08T15:24:16.166Z,1.38
2022-08-08T15:28:05.215Z,1.10
2022-08-08T15:30:40.945Z,1.30
2022-08-08T15:33:59.236Z,1.20
2022-08-08T15:37:03.740Z,1.05
2022-08-08T15:40:11.134Z,1.23
2022-08-08T15:43:35.048Z,1.30
2022-08-08T15:46:39.249Z,1.35
2022-08-08T15:49:48.902Z,1.20
2022-08-08T15:52:52.758Z,1.40
2022-08-08T15:55:55.248Z,1.38
2022-08-08T15:58:57.085Z,1.17
